KHLG

Wheeling Ohio Co Airport

Wheeling, West Virginia, USA
METAR KHLG 180153Z 17004KT 10SM FEW025 SCT040 SCT120 21/19 A3000 RMK AO2 SLP152 T02060194
Observed Flight Rules
Aug-18 @ 01:53 UTC (36 minutes ago) Visual Flight Rules
Wind Visibility Clouds
170° at 4 knots 10 miles
  • Few at 2,500' AGL
  • Scattered at 4,000' AGL
  • Scattered at 12,000' AGL
Temperatures Readings
Current 21°C / 70°F
Dewpoint 19°C / 66°F
Humidity 88%
Altimeter 30" Hg
Pressure 1015.2 hPa
Elevation 372
METAR KHLG 180153Z 17004KT 10SM FEW025 SCT040 SCT120 21/19 A3000 RMK AO2 SLP152 T02060194
Observed Flight Rules
Aug-18 @ 01:53 UTC
(36 minutes ago)
VFR
Wind Visibility
170° at 4 knots 10 miles
Clouds
  • Few at 2,500' AGL
  • Scattered at 4,000' AGL
  • Scattered at 12,000' AGL
Temperature Dewpoint
21°C / 70°F 19°C / 66°F
Humidity Altimeter Pressure
88% 30" Hg 1015.2 hPa